Terminal Aerodrome Forecast
Issued by NWS

Home | Current Version | Previous Version | Graphics & Text | Print | Product List | Glossary On
Versions: 1 2 3 4 5 6 7 8 9 10 11 12 13 14 15 16 17 18 19 20 21 22 23 24
713
FTUS43 KBIS 202335
TAFMOT
TAF
KMOT 202335Z 2100/2124 29023G33KT P6SM SCT110
     FM210700 31021G29KT P6SM SCT200
     FM211000 30017G24KT P6SM SCT020 BKN090
     FM211600 29014KT P6SM SCT090=

USA.gov is the U.S. government's official web portal to all federal, state and local government web resources and services.